Time;durP1;ratioP1;P1;durP2;ratioP2;P2;SDS_P1;SDS_P2;PMS_P1;PMS_P2;Temp;Humidity;BMP_temperature;BMP_pressure;BME280_temperature;BME280_humidity;BME280_pressure;Samples;Min_cycle;Max_cycle;Signal;HPM_P1;HPM_P2
2021/12/01 00:01:11;;;;;;;15.90;3.30;;;;;;;;;;2557002;54;21058;-76
2021/12/01 00:03:40;;;;;;;15.10;3.70;;;;;;;;;;2316658;58;21118;-76
2021/12/01 00:06:07;;;;;;;14.45;3.78;;;;;;;;;;2557260;53;21071;-75
2021/12/01 00:08:35;;;;;;;12.45;3.87;;;;;;;;;;2556905;54;21123;-76
2021/12/01 00:11:02;;;;;;;13.23;2.80;;;;;;;;;;2556213;53;21175;-76
2021/12/01 00:13:32;;;;;;;19.02;3.30;;;;;;;;;;2556887;54;21234;-76
2021/12/01 00:16:00;;;;;;;12.32;2.72;;;;;;;;;;2316451;58;21051;-77
2021/12/01 00:18:27;;;;;;;9.27;2.62;;;;;;;;;;2316105;58;21175;-76
2021/12/01 00:20:54;;;;;;;18.37;3.22;;;;;;;;;;2316448;58;21116;-76
2021/12/01 00:23:21;;;;;;;12.77;3.22;;;;;;;;;;2557015;54;21205;-77
2021/12/01 00:25:48;;;;;;;13.60;3.05;;;;;;;;;;2316800;58;21091;-76
2021/12/01 00:28:15;;;;;;;14.75;2.87;;;;;;;;;;2316478;58;21071;-79
2021/12/01 00:30:43;;;;;;;20.85;6.18;;;;;;;;;;2316415;58;21088;-76
2021/12/01 00:33:11;;;;;;;15.65;4.75;;;;;;;;;;2316596;58;21064;-76
2021/12/01 00:35:38;;;;;;;12.73;3.00;;;;;;;;;;2316523;58;21071;-77
2021/12/01 00:38:06;;;;;;;23.23;3.62;;;;;;;;;;2556938;54;21066;-76
2021/12/01 00:40:33;;;;;;;12.30;3.50;;;;;;;;;;2316388;58;21128;-77
2021/12/01 00:43:00;;;;;;;14.25;3.22;;;;;;;;;;2316074;58;21594;-78
2021/12/01 00:45:28;;;;;;;14.45;3.35;;;;;;;;;;2316874;58;21111;-76
2021/12/01 00:47:56;;;;;;;13.15;3.33;;;;;;;;;;2557328;53;21067;-77
2021/12/01 00:50:25;;;;;;;12.00;3.22;;;;;;;;;;2316580;58;21099;-77
2021/12/01 00:52:53;;;;;;;18.27;3.90;;;;;;;;;;2316188;58;21428;-77
2021/12/01 00:55:20;;;;;;;14.95;3.50;;;;;;;;;;2557277;53;21047;-77
2021/12/01 00:57:50;;;;;;;15.23;3.47;;;;;;;;;;2556791;53;21131;-77
2021/12/01 01:00:18;;;;;;;16.60;3.45;;;;;;;;;;2316469;58;21135;-76
2021/12/01 01:02:45;;;;;;;11.70;3.40;;;;;;;;;;2316702;58;21064;-77
2021/12/01 01:05:13;;;;;;;13.40;3.08;;;;;;;;;;2316484;58;21131;-77
2021/12/01 01:07:40;;;;;;;15.77;3.67;;;;;;;;;;2316778;58;21064;-77
2021/12/01 01:10:17;;;;;;;13.73;3.40;;;;;;;;;;2316053;58;21123;-77
2021/12/01 01:18:25;;;;;;;16.42;4.12;;;;;;;;;;2336448;57;28317;-76
2021/12/01 01:20:53;;;;;;;15.70;4.10;;;;;;;;;;2346845;57;21049;-76
2021/12/01 01:23:20;;;;;;;22.25;4.95;;;;;;;;;;2347840;57;21618;-76
2021/12/01 01:25:47;;;;;;;13.38;3.78;;;;;;;;;;2348909;56;21057;-76
2021/12/01 01:28:14;;;;;;;20.05;4.47;;;;;;;;;;2375159;56;21043;-76
2021/12/01 01:30:41;;;;;;;12.35;3.83;;;;;;;;;;2374312;56;21549;-76
2021/12/01 01:33:08;;;;;;;15.38;3.33;;;;;;;;;;2375763;56;21068;-75
2021/12/01 01:35:35;;;;;;;13.68;3.60;;;;;;;;;;2375770;56;21046;-76
2021/12/01 01:38:03;;;;;;;11.50;3.28;;;;;;;;;;2375153;56;21078;-75
2021/12/01 01:40:30;;;;;;;12.20;3.58;;;;;;;;;;2374117;56;21047;-76
2021/12/01 01:42:57;;;;;;;9.55;3.50;;;;;;;;;;2374692;56;21537;-76
2021/12/01 01:45:24;;;;;;;13.40;3.28;;;;;;;;;;2374922;56;21039;-75
2021/12/01 01:47:59;;;;;;;14.87;3.47;;;;;;;;;;2628419;52;21180;-76
2021/12/01 01:50:35;;;;;;;14.65;4.10;;;;;;;;;;2374081;56;21122;-76
2021/12/01 01:53:04;;;;;;;11.30;3.33;;;;;;;;;;2374803;56;21059;-77
2021/12/01 01:55:31;;;;;;;12.48;3.55;;;;;;;;;;2374248;56;21034;-76
2021/12/01 01:57:59;;;;;;;11.98;3.25;;;;;;;;;;2375162;56;21027;-76
2021/12/01 02:00:26;;;;;;;16.42;3.92;;;;;;;;;;2373964;56;21097;-76
2021/12/01 02:02:55;;;;;;;11.15;3.50;;;;;;;;;;2375233;56;21961;-76
2021/12/01 02:05:22;;;;;;;10.32;3.42;;;;;;;;;;2375107;56;21035;-76
2021/12/01 02:07:51;;;;;;;18.08;4.07;;;;;;;;;;2375394;56;21113;-76
2021/12/01 02:10:19;;;;;;;15.45;4.30;;;;;;;;;;2374647;56;21034;-76
2021/12/01 02:12:46;;;;;;;20.25;4.50;;;;;;;;;;2374441;56;21031;-77
2021/12/01 02:15:14;;;;;;;14.77;4.15;;;;;;;;;;2374941;56;21110;-76
2021/12/01 02:17:41;;;;;;;10.20;4.10;;;;;;;;;;2374249;56;21098;-77
2021/12/01 02:20:12;;;;;;;13.98;4.12;;;;;;;;;;2373849;56;21381;-76
2021/12/01 02:22:39;;;;;;;13.48;3.95;;;;;;;;;;2374830;56;21061;-77
2021/12/01 02:25:07;;;;;;;12.73;4.07;;;;;;;;;;2374310;56;21015;-77
2021/12/01 02:27:34;;;;;;;15.18;4.45;;;;;;;;;;2375025;56;21102;-76
2021/12/01 02:30:01;;;;;;;11.35;3.85;;;;;;;;;;2373507;56;21043;-77
2021/12/01 02:32:28;;;;;;;14.75;4.37;;;;;;;;;;2373711;56;21063;-76
2021/12/01 02:34:55;;;;;;;11.18;4.55;;;;;;;;;;2373093;56;21024;-77
2021/12/01 02:37:23;;;;;;;13.13;4.43;;;;;;;;;;2373706;56;21043;-76
2021/12/01 02:39:51;;;;;;;8.95;3.83;;;;;;;;;;2373415;56;21039;-76
2021/12/01 02:42:19;;;;;;;11.75;4.60;;;;;;;;;;2373710;56;21059;-77
2021/12/01 02:44:46;;;;;;;10.43;3.72;;;;;;;;;;2373914;56;21090;-77
2021/12/01 02:47:14;;;;;;;9.23;4.15;;;;;;;;;;2373828;56;21015;-76
2021/12/01 02:49:41;;;;;;;14.35;4.45;;;;;;;;;;2373047;56;21640;-76
2021/12/01 02:52:08;;;;;;;8.85;3.75;;;;;;;;;;2373752;56;21634;-75
2021/12/01 02:54:35;;;;;;;11.75;4.20;;;;;;;;;;2373763;56;21526;-75
2021/12/01 02:57:03;;;;;;;10.18;4.40;;;;;;;;;;2372774;56;21054;-76
2021/12/01 02:59:30;;;;;;;12.63;4.43;;;;;;;;;;2372193;56;21042;-76
2021/12/01 03:01:57;;;;;;;8.07;3.45;;;;;;;;;;2372704;56;21035;-76
2021/12/01 03:04:24;;;;;;;10.57;4.35;;;;;;;;;;2372808;56;21135;-76
2021/12/01 03:06:52;;;;;;;7.65;3.60;;;;;;;;;;2373350;56;21059;-75
2021/12/01 03:09:19;;;;;;;6.60;3.22;;;;;;;;;;2372887;56;21125;-76
2021/12/01 03:11:46;;;;;;;8.20;3.53;;;;;;;;;;2373083;56;21019;-75
2021/12/01 03:14:15;;;;;;;9.93;3.65;;;;;;;;;;2372984;56;21055;-76
2021/12/01 03:16:43;;;;;;;8.80;3.62;;;;;;;;;;2373124;56;21046;-76
2021/12/01 03:19:10;;;;;;;7.93;3.28;;;;;;;;;;2372826;56;21054;-76
2021/12/01 03:21:38;;;;;;;4.07;2.65;;;;;;;;;;2373411;56;21534;-76
2021/12/01 03:24:06;;;;;;;5.50;2.90;;;;;;;;;;2373184;56;21118;-75
2021/12/01 03:26:33;;;;;;;5.15;2.97;;;;;;;;;;2373224;56;21118;-75
2021/12/01 03:29:01;;;;;;;9.07;2.72;;;;;;;;;;2372806;56;21047;-76
2021/12/01 03:31:28;;;;;;;4.40;2.30;;;;;;;;;;2373213;56;21027;-76
2021/12/01 03:33:55;;;;;;;6.68;2.60;;;;;;;;;;2372979;56;21106;-76
2021/12/01 03:36:22;;;;;;;4.53;2.20;;;;;;;;;;2373945;56;21027;-76
2021/12/01 03:38:49;;;;;;;6.00;2.50;;;;;;;;;;2374692;56;21046;-76
2021/12/01 03:41:17;;;;;;;4.93;2.22;;;;;;;;;;2373092;56;22267;-76
2021/12/01 03:43:44;;;;;;;5.15;2.30;;;;;;;;;;2373246;56;21321;-76
2021/12/01 03:46:11;;;;;;;3.12;2.00;;;;;;;;;;2372974;56;21063;-76
2021/12/01 03:48:38;;;;;;;3.03;2.22;;;;;;;;;;2373408;56;21083;-76
2021/12/01 03:51:05;;;;;;;2.90;1.80;;;;;;;;;;2372121;56;21101;-76
2021/12/01 03:53:32;;;;;;;2.55;1.60;;;;;;;;;;2374368;56;21071;-76
2021/12/01 03:55:59;;;;;;;3.53;2.30;;;;;;;;;;2373968;56;21071;-76
2021/12/01 03:58:26;;;;;;;3.92;1.62;;;;;;;;;;2373645;56;21022;-76
2021/12/01 04:00:53;;;;;;;2.00;1.42;;;;;;;;;;2373738;56;21054;-76
2021/12/01 04:03:20;;;;;;;2.60;1.87;;;;;;;;;;2627501;52;21027;-76
2021/12/01 04:05:48;;;;;;;3.50;1.65;;;;;;;;;;2373699;56;21546;-76
2021/12/01 04:08:15;;;;;;;2.85;1.45;;;;;;;;;;2374380;56;21103;-76
2021/12/01 04:10:42;;;;;;;2.58;1.65;;;;;;;;;;2373995;56;21039;-76
2021/12/01 04:13:09;;;;;;;2.58;1.40;;;;;;;;;;2374413;56;21118;-76
2021/12/01 04:15:36;;;;;;;3.55;1.90;;;;;;;;;;2373879;56;21086;-76
2021/12/01 04:18:03;;;;;;;5.00;1.83;;;;;;;;;;2374026;56;21043;-76
2021/12/01 04:20:31;;;;;;;2.08;1.55;;;;;;;;;;2373264;56;21066;-76
2021/12/01 04:22:58;;;;;;;2.17;1.55;;;;;;;;;;2374252;56;21508;-76
2021/12/01 04:25:25;;;;;;;2.40;1.60;;;;;;;;;;2374712;56;21031;-76
2021/12/01 04:27:53;;;;;;;2.40;1.77;;;;;;;;;;2374063;56;21019;-76
2021/12/01 04:30:22;;;;;;;2.83;1.52;;;;;;;;;;2373861;56;21565;-76
2021/12/01 04:32:50;;;;;;;2.80;1.70;;;;;;;;;;2374004;56;21062;-76
2021/12/01 04:35:19;;;;;;;3.15;1.58;;;;;;;;;;2374500;56;21032;-76
2021/12/01 04:37:46;;;;;;;2.12;1.77;;;;;;;;;;2374344;56;21113;-75
2021/12/01 04:40:14;;;;;;;1.40;1.30;;;;;;;;;;2373676;56;21082;-76
2021/12/01 04:42:41;;;;;;;1.52;1.42;;;;;;;;;;2374500;56;21043;-75
2021/12/01 04:45:14;;;;;;;1.90;1.50;;;;;;;;;;2374349;56;21039;-76
2021/12/01 04:47:42;;;;;;;2.78;1.98;;;;;;;;;;2374441;56;21122;-76
2021/12/01 04:50:11;;;;;;;3.00;1.90;;;;;;;;;;2373835;56;21106;-76
2021/12/01 04:52:38;;;;;;;2.60;2.00;;;;;;;;;;2374172;56;21019;-76
2021/12/01 04:55:06;;;;;;;3.40;2.00;;;;;;;;;;2374258;56;21102;-76
2021/12/01 04:57:34;;;;;;;30.50;5.80;;;;;;;;;;2374452;56;21079;-76
2021/12/01 05:00:01;;;;;;;2.70;2.08;;;;;;;;;;2374246;56;21136;-76
2021/12/01 05:02:28;;;;;;;3.55;1.80;;;;;;;;;;2368766;56;21110;-76
2021/12/01 05:04:55;;;;;;;6.60;2.37;;;;;;;;;;2374341;56;21110;-76
2021/12/01 05:07:23;;;;;;;3.58;2.15;;;;;;;;;;2373745;56;21122;-76
2021/12/01 05:09:50;;;;;;;3.30;2.10;;;;;;;;;;2373829;56;21051;-77
2021/12/01 05:12:17;;;;;;;3.42;1.87;;;;;;;;;;2371911;56;21124;-77
2021/12/01 05:14:44;;;;;;;2.00;1.80;;;;;;;;;;2627194;52;21620;-76
2021/12/01 05:17:11;;;;;;;2.17;1.70;;;;;;;;;;2330070;53;70023;-77
2021/12/01 05:19:38;;;;;;;1.98;1.77;;;;;;;;;;2312407;58;21046;-76
2021/12/01 05:22:05;;;;;;;1.90;1.50;;;;;;;;;;2313068;58;21083;-76
2021/12/01 05:24:33;;;;;;;2.17;1.37;;;;;;;;;;2313045;58;21063;-77
2021/12/01 05:27:00;;;;;;;1.65;1.45;;;;;;;;;;2311665;58;21036;-77
2021/12/01 05:29:27;;;;;;;2.15;1.40;;;;;;;;;;2310308;58;21095;-77
2021/12/01 05:31:55;;;;;;;2.67;1.50;;;;;;;;;;2310360;58;21031;-78
2021/12/01 05:34:22;;;;;;;1.70;1.55;;;;;;;;;;2549864;54;21556;-76
2021/12/01 05:36:49;;;;;;;1.83;1.42;;;;;;;;;;2311320;58;21060;-78
2021/12/01 05:39:17;;;;;;;1.55;1.45;;;;;;;;;;2311669;58;21100;-77
2021/12/01 05:41:44;;;;;;;2.22;1.60;;;;;;;;;;2311782;58;21116;-78
2021/12/01 05:44:12;;;;;;;2.30;1.90;;;;;;;;;;2311909;58;21088;-78
2021/12/01 05:46:39;;;;;;;1.73;1.60;;;;;;;;;;2311945;58;21135;-78
2021/12/01 05:49:06;;;;;;;2.53;2.00;;;;;;;;;;2311904;58;21203;-77
2021/12/01 05:51:33;;;;;;;2.58;1.70;;;;;;;;;;2312000;58;21618;-77
2021/12/01 05:54:00;;;;;;;1.87;1.42;;;;;;;;;;2551331;54;21108;-78
2021/12/01 05:56:28;;;;;;;1.55;1.45;;;;;;;;;;2311755;58;21148;-76
2021/12/01 05:58:55;;;;;;;1.73;1.60;;;;;;;;;;2310712;58;21068;-77
2021/12/01 06:01:22;;;;;;;2.53;2.03;;;;;;;;;;2311884;58;21106;-77
2021/12/01 06:03:49;;;;;;;3.40;1.73;;;;;;;;;;2311777;58;21194;-77
2021/12/01 06:06:16;;;;;;;2.05;1.85;;;;;;;;;;2312018;58;21039;-77
2021/12/01 06:08:43;;;;;;;2.25;1.92;;;;;;;;;;2311991;58;21047;-76
2021/12/01 06:11:10;;;;;;;2.80;2.33;;;;;;;;;;2311999;58;21048;-78
2021/12/01 06:13:40;;;;;;;2.58;2.25;;;;;;;;;;2312168;58;21551;-77
2021/12/01 06:16:08;;;;;;;2.10;1.85;;;;;;;;;;2312149;58;21052;-77
2021/12/01 06:18:35;;;;;;;3.58;2.20;;;;;;;;;;2311853;58;21624;-82
2021/12/01 06:21:02;;;;;;;3.55;2.00;;;;;;;;;;2311731;58;21706;-79
2021/12/01 06:23:30;;;;;;;3.03;2.80;;;;;;;;;;2552024;54;21127;-77
2021/12/01 06:25:57;;;;;;;3.40;2.80;;;;;;;;;;2312305;58;21051;-77
2021/12/01 06:28:24;;;;;;;1.85;1.75;;;;;;;;;;2312325;58;22207;-76
2021/12/01 06:30:51;;;;;;;2.45;2.15;;;;;;;;;;2312211;58;21139;-77
2021/12/01 06:33:18;;;;;;;2.75;2.00;;;;;;;;;;2551884;54;21059;-77
2021/12/01 06:35:49;;;;;;;2.65;2.30;;;;;;;;;;2312408;58;21044;-76
2021/12/01 06:38:16;;;;;;;3.25;2.60;;;;;;;;;;2312141;58;21151;-77
2021/12/01 06:40:43;;;;;;;3.95;3.55;;;;;;;;;;2312245;58;21115;-76
2021/12/01 06:43:10;;;;;;;3.47;3.17;;;;;;;;;;2312308;58;21111;-77
2021/12/01 06:45:37;;;;;;;4.30;3.65;;;;;;;;;;2312476;58;21048;-77
2021/12/01 06:48:05;;;;;;;4.75;4.03;;;;;;;;;;2312663;58;21036;-76
2021/12/01 06:50:32;;;;;;;5.32;3.70;;;;;;;;;;2551629;54;21028;-77
2021/12/01 06:52:59;;;;;;;5.95;3.60;;;;;;;;;;2312566;58;21052;-77
2021/12/01 06:55:26;;;;;;;4.90;3.78;;;;;;;;;;2551774;54;21178;-76
2021/12/01 06:57:53;;;;;;;4.90;4.25;;;;;;;;;;2312483;58;21103;-77
2021/12/01 07:00:21;;;;;;;4.95;4.05;;;;;;;;;;2551670;54;21111;-77
2021/12/01 07:02:48;;;;;;;5.87;3.92;;;;;;;;;;2312523;58;21647;-77
2021/12/01 07:05:15;;;;;;;5.00;4.10;;;;;;;;;;2312106;58;21052;-77
2021/12/01 07:07:42;;;;;;;6.18;4.97;;;;;;;;;;2312322;58;21028;-78
2021/12/01 07:10:11;;;;;;;7.43;5.25;;;;;;;;;;2312234;58;21052;-77
2021/12/01 07:12:38;;;;;;;7.25;5.28;;;;;;;;;;2551740;54;21112;-77
2021/12/01 07:15:06;;;;;;;8.25;5.50;;;;;;;;;;2312423;58;21056;-77
2021/12/01 07:17:33;;;;;;;6.62;5.12;;;;;;;;;;2551541;53;21060;-77
2021/12/01 07:20:00;;;;;;;7.25;5.22;;;;;;;;;;2312144;58;21063;-77
2021/12/01 07:22:27;;;;;;;8.65;5.62;;;;;;;;;;2312372;58;21076;-77
2021/12/01 07:24:54;;;;;;;5.78;4.62;;;;;;;;;;2312302;58;21056;-77
2021/12/01 07:27:21;;;;;;;6.75;4.50;;;;;;;;;;2312376;58;21028;-77
2021/12/01 07:29:48;;;;;;;6.82;5.22;;;;;;;;;;2551699;54;21115;-78
2021/12/01 07:32:16;;;;;;;6.70;4.45;;;;;;;;;;2312353;58;21524;-78
2021/12/01 07:34:43;;;;;;;5.85;4.28;;;;;;;;;;2312184;58;21564;-77
2021/12/01 07:37:10;;;;;;;5.25;3.92;;;;;;;;;;2552204;54;21108;-77
2021/12/01 07:39:37;;;;;;;4.10;2.90;;;;;;;;;;2312173;58;21131;-77
2021/12/01 07:42:05;;;;;;;4.53;3.67;;;;;;;;;;2551492;54;21040;-77
2021/12/01 07:44:32;;;;;;;4.93;4.03;;;;;;;;;;2312023;58;21520;-78
2021/12/01 07:46:59;;;;;;;4.18;3.37;;;;;;;;;;2312705;58;21178;-78
2021/12/01 07:49:26;;;;;;;4.05;2.90;;;;;;;;;;2312334;58;21084;-77
2021/12/01 07:51:53;;;;;;;5.30;3.40;;;;;;;;;;2312185;58;21177;-78
2021/12/01 07:54:21;;;;;;;3.80;3.37;;;;;;;;;;2552469;54;21607;-77
2021/12/01 07:56:48;;;;;;;5.40;4.05;;;;;;;;;;2312236;58;21595;-77
2021/12/01 07:59:15;;;;;;;3.80;3.45;;;;;;;;;;2311369;58;21035;-78
2021/12/01 08:01:43;;;;;;;4.60;3.92;;;;;;;;;;2311914;58;21104;-77
2021/12/01 08:04:10;;;;;;;5.72;3.40;;;;;;;;;;2311994;58;21047;-77
2021/12/01 08:06:37;;;;;;;6.37;3.55;;;;;;;;;;2312137;58;21119;-77
2021/12/01 08:09:05;;;;;;;3.62;3.30;;;;;;;;;;2312241;58;21051;-78
2021/12/01 08:11:32;;;;;;;6.72;3.15;;;;;;;;;;2312606;58;21088;-78
2021/12/01 08:13:59;;;;;;;3.60;2.70;;;;;;;;;;2551725;54;21051;-77
2021/12/01 08:16:26;;;;;;;3.10;2.80;;;;;;;;;;2312354;58;21047;-77
2021/12/01 08:18:55;;;;;;;2.97;2.72;;;;;;;;;;2311782;58;21059;-77
2021/12/01 08:21:22;;;;;;;6.10;3.35;;;;;;;;;;2552058;54;21036;-77
2021/12/01 08:23:49;;;;;;;3.55;2.85;;;;;;;;;;2312338;58;21039;-77
2021/12/01 08:26:16;;;;;;;2.67;2.47;;;;;;;;;;2311942;58;21619;-78
2021/12/01 08:28:45;;;;;;;2.85;2.58;;;;;;;;;;2312169;58;21065;-77
2021/12/01 08:31:13;;;;;;;2.47;2.15;;;;;;;;;;2312117;58;21052;-78
2021/12/01 08:33:40;;;;;;;4.03;2.80;;;;;;;;;;2312168;58;21092;-77
2021/12/01 08:36:07;;;;;;;2.90;2.40;;;;;;;;;;2312080;58;21104;-76
2021/12/01 08:38:34;;;;;;;5.95;2.92;;;;;;;;;;2312228;58;21580;-77
2021/12/01 08:41:02;;;;;;;2.78;2.50;;;;;;;;;;2311697;58;21088;-77
2021/12/01 08:43:29;;;;;;;2.90;2.55;;;;;;;;;;2312587;58;21119;-78
2021/12/01 08:45:57;;;;;;;3.10;2.72;;;;;;;;;;2312951;58;21178;-78
2021/12/01 08:48:24;;;;;;;3.67;2.50;;;;;;;;;;2552440;54;21052;-78
2021/12/01 08:50:51;;;;;;;3.20;2.50;;;;;;;;;;2312644;58;21052;-77
2021/12/01 08:53:18;;;;;;;2.83;2.60;;;;;;;;;;2552548;54;21044;-78
2021/12/01 08:55:46;;;;;;;3.92;2.83;;;;;;;;;;2312755;58;21055;-77
2021/12/01 08:58:14;;;;;;;3.05;2.55;;;;;;;;;;2552018;54;21663;-78
2021/12/01 09:00:44;;;;;;;5.22;3.10;;;;;;;;;;2312141;58;21107;-78
2021/12/01 09:03:11;;;;;;;3.33;2.87;;;;;;;;;;2552042;54;21112;-77
2021/12/01 09:05:38;;;;;;;3.65;2.72;;;;;;;;;;2312175;58;21059;-78
2021/12/01 09:08:05;;;;;;;3.42;3.08;;;;;;;;;;2552770;54;21108;-78
2021/12/01 09:10:33;;;;;;;3.00;2.58;;;;;;;;;;2551981;54;21064;-77
2021/12/01 09:13:00;;;;;;;3.80;3.37;;;;;;;;;;2552221;54;21053;-77
2021/12/01 09:15:28;;;;;;;3.10;2.80;;;;;;;;;;2312386;58;21154;-77
2021/12/01 09:17:57;;;;;;;4.45;3.10;;;;;;;;;;2312603;58;21119;-77
2021/12/01 09:20:24;;;;;;;6.25;4.05;;;;;;;;;;2312130;58;21151;-77
2021/12/01 09:22:51;;;;;;;5.30;3.25;;;;;;;;;;2312301;58;21056;-78
2021/12/01 09:25:18;;;;;;;4.07;3.67;;;;;;;;;;2312296;58;21059;-78
2021/12/01 09:27:47;;;;;;;4.00;3.35;;;;;;;;;;2312026;58;21060;-77
2021/12/01 09:30:15;;;;;;;6.25;3.42;;;;;;;;;;2551265;54;21115;-78
2021/12/01 09:32:42;;;;;;;3.40;2.95;;;;;;;;;;2312771;58;21118;-78
2021/12/01 09:35:11;;;;;;;3.83;3.35;;;;;;;;;;2552120;54;21115;-77
2021/12/01 09:37:38;;;;;;;5.62;3.45;;;;;;;;;;2312351;58;21047;-78
2021/12/01 09:40:12;;;;;;;3.20;2.80;;;;;;;;;;2551794;54;21630;-78
2021/12/01 09:42:39;;;;;;;6.12;3.20;;;;;;;;;;2553067;54;21135;-78
2021/12/01 09:45:07;;;;;;;4.12;3.40;;;;;;;;;;2312853;58;21047;-75
2021/12/01 09:47:34;;;;;;;5.18;3.00;;;;;;;;;;2312973;58;21063;-78
2021/12/01 09:50:01;;;;;;;3.05;2.62;;;;;;;;;;2312363;58;21635;-76
2021/12/01 09:52:28;;;;;;;2.83;2.45;;;;;;;;;;2312772;58;21571;-78
2021/12/01 09:54:55;;;;;;;4.20;2.80;;;;;;;;;;2552625;54;21115;-78
2021/12/01 09:57:22;;;;;;;3.22;2.60;;;;;;;;;;2313043;58;21091;-77
2021/12/01 09:59:50;;;;;;;3.90;2.90;;;;;;;;;;2312543;58;21043;-78
2021/12/01 10:02:17;;;;;;;3.25;2.90;;;;;;;;;;2312675;58;21035;-78
2021/12/01 10:04:44;;;;;;;2.87;2.58;;;;;;;;;;2313535;58;21620;-77
2021/12/01 10:07:15;;;;;;;4.85;2.45;;;;;;;;;;2552351;54;21100;-77
2021/12/01 10:09:43;;;;;;;2.40;2.20;;;;;;;;;;2552528;54;21052;-76
2021/12/01 10:12:12;;;;;;;2.75;2.17;;;;;;;;;;2312817;58;21052;-77
2021/12/01 10:14:39;;;;;;;2.97;2.33;;;;;;;;;;2312781;58;21035;-77
2021/12/01 10:17:06;;;;;;;3.10;2.53;;;;;;;;;;2312614;58;21167;-77
2021/12/01 10:19:34;;;;;;;2.92;2.10;;;;;;;;;;2552363;53;21051;-77
2021/12/01 10:22:01;;;;;;;2.33;2.10;;;;;;;;;;2312493;58;21131;-77
2021/12/01 10:24:30;;;;;;;3.15;2.03;;;;;;;;;;2552497;54;21059;-75
2021/12/01 10:26:59;;;;;;;2.25;2.05;;;;;;;;;;2312788;58;21135;-76
2021/12/01 10:29:27;;;;;;;3.67;2.03;;;;;;;;;;2552456;54;21124;-77
2021/12/01 10:31:55;;;;;;;2.50;2.30;;;;;;;;;;2313010;58;21056;-77
2021/12/01 10:34:27;;;;;;;2.12;1.90;;;;;;;;;;2312838;58;21587;-76
2021/12/01 10:37:18;;;;;;;1.87;1.77;;;;;;;;;;2312345;58;21063;-77
2021/12/01 10:39:46;;;;;;;2.30;2.10;;;;;;;;;;2306855;58;21091;-77
2021/12/01 10:42:15;;;;;;;2.30;1.92;;;;;;;;;;2552561;54;21047;-77
2021/12/01 10:44:55;;;;;;;2.10;1.80;;;;;;;;;;2313010;58;21214;-77
2021/12/01 10:47:23;;;;;;;2.22;1.70;;;;;;;;;;2551991;54;21096;-76
2021/12/01 10:49:50;;;;;;;2.05;1.80;;;;;;;;;;2312879;58;21049;-77
2021/12/01 10:52:31;;;;;;;2.40;2.20;;;;;;;;;;2312683;58;21087;-76
2021/12/01 10:55:09;;;;;;;3.12;1.87;;;;;;;;;;2552497;54;21139;-76
2021/12/01 10:57:38;;;;;;;3.03;2.03;;;;;;;;;;2313253;58;21036;-76
2021/12/01 11:00:11;;;;;;;1.87;1.77;;;;;;;;;;2312703;58;21127;-76
2021/12/01 11:02:38;;;;;;;1.87;1.60;;;;;;;;;;2553179;54;21123;-77
2021/12/01 11:05:07;;;;;;;2.00;1.80;;;;;;;;;;2312609;58;21195;-76
2021/12/01 11:07:35;;;;;;;2.03;1.85;;;;;;;;;;2313093;58;21048;-76
2021/12/01 11:10:12;;;;;;;2.42;2.22;;;;;;;;;;2552851;54;21130;-74
2021/12/01 11:12:39;;;;;;;3.17;1.90;;;;;;;;;;2312723;58;21075;-76
2021/12/01 11:15:16;;;;;;;3.30;2.58;;;;;;;;;;2313340;58;21055;-77
2021/12/01 11:17:43;;;;;;;3.42;2.70;;;;;;;;;;2552619;54;21052;-77
2021/12/01 11:20:11;;;;;;;2.35;2.08;;;;;;;;;;2552704;53;21115;-76
2021/12/01 11:22:38;;;;;;;2.22;2.03;;;;;;;;;;2552194;54;21052;-76
2021/12/01 11:25:19;;;;;;;2.92;2.37;;;;;;;;;;2552892;54;21040;-76
2021/12/01 11:27:46;;;;;;;2.70;2.22;;;;;;;;;;2552600;54;21548;-76
2021/12/01 11:30:13;;;;;;;4.25;2.45;;;;;;;;;;2312650;58;21147;-76
2021/12/01 11:32:40;;;;;;;2.20;2.00;;;;;;;;;;2313048;58;21052;-76
2021/12/01 11:35:08;;;;;;;4.07;2.53;;;;;;;;;;2312594;58;21147;-75
2021/12/01 11:37:36;;;;;;;2.08;1.77;;;;;;;;;;2311887;58;21055;-77
2021/12/01 11:40:03;;;;;;;2.40;2.10;;;;;;;;;;2550569;54;21092;-76
2021/12/01 11:42:30;;;;;;;2.80;2.50;;;;;;;;;;2312315;58;21079;-76
2021/12/01 11:44:59;;;;;;;1.73;1.62;;;;;;;;;;2312894;58;21067;-76
2021/12/01 11:47:26;;;;;;;1.90;1.80;;;;;;;;;;2312486;58;21056;-76
2021/12/01 11:49:56;;;;;;;2.20;2.00;;;;;;;;;;2551913;54;21063;-76
2021/12/01 11:52:29;;;;;;;2.30;2.10;;;;;;;;;;2313102;58;21115;-77
2021/12/01 11:54:56;;;;;;;1.95;1.67;;;;;;;;;;2312317;58;21071;-76
2021/12/01 11:57:24;;;;;;;2.50;2.00;;;;;;;;;;2312204;58;21079;-77
2021/12/01 11:59:51;;;;;;;2.90;1.90;;;;;;;;;;2552149;54;21647;-76
2021/12/01 12:02:24;;;;;;;2.17;1.98;;;;;;;;;;2313144;58;21143;-76
2021/12/01 12:04:52;;;;;;;2.25;2.05;;;;;;;;;;2553028;54;21147;-76
2021/12/01 12:07:21;;;;;;;3.60;1.58;;;;;;;;;;2313298;58;21036;-77
2021/12/01 12:10:06;;;;;;;2.60;1.73;;;;;;;;;;2313261;58;21064;-76
2021/12/01 12:12:44;;;;;;;2.42;1.50;;;;;;;;;;2313786;58;21540;-76
2021/12/01 12:15:11;;;;;;;2.75;1.85;;;;;;;;;;2552919;54;21063;-77
2021/12/01 12:17:38;;;;;;;1.90;1.50;;;;;;;;;;2552363;54;21108;-76
2021/12/01 12:20:17;;;;;;;1.70;1.60;;;;;;;;;;2312377;58;21131;-75
2021/12/01 12:23:05;;;;;;;2.03;1.70;;;;;;;;;;2313194;58;21084;-76
2021/12/01 12:25:37;;;;;;;1.90;1.40;;;;;;;;;;2313285;58;21092;-78
2021/12/01 12:28:19;;;;;;;3.42;2.00;;;;;;;;;;2551904;54;21052;-78
2021/12/01 12:30:46;;;;;;;3.40;1.92;;;;;;;;;;2551829;54;21139;-78
2021/12/01 12:33:17;;;;;;;3.50;2.00;;;;;;;;;;2313151;58;21521;-77
2021/12/01 12:35:45;;;;;;;1.62;1.52;;;;;;;;;;2552268;54;21119;-77
2021/12/01 12:38:14;;;;;;;2.45;2.05;;;;;;;;;;2312998;58;21075;-76
2021/12/01 12:40:41;;;;;;;2.62;1.60;;;;;;;;;;2552029;54;21028;-77
2021/12/01 12:43:12;;;;;;;1.75;1.50;;;;;;;;;;2551845;54;21128;-77
2021/12/01 12:45:40;;;;;;;3.33;1.83;;;;;;;;;;2313011;58;21043;-77
2021/12/01 12:48:24;;;;;;;1.40;1.30;;;;;;;;;;2312849;58;21127;-78
2021/12/01 12:51:14;;;;;;;1.80;1.50;;;;;;;;;;2312807;58;21048;-77
2021/12/01 12:53:59;;;;;;;1.23;1.05;;;;;;;;;;2552646;54;21067;-77
2021/12/01 12:56:27;;;;;;;2.15;1.20;;;;;;;;;;2313084;58;21044;-77
2021/12/01 12:59:16;;;;;;;1.10;1.00;;;;;;;;;;2312405;58;21089;-74
2021/12/01 13:01:43;;;;;;;1.37;1.20;;;;;;;;;;2312234;58;21064;-77
2021/12/01 13:04:54;;;;;;;2.83;1.42;;;;;;;;;;2551955;54;21610;-77
2021/12/01 13:07:38;;;;;;;2.62;1.17;;;;;;;;;;2312419;58;21047;-78
2021/12/01 13:10:06;;;;;;;2.75;1.30;;;;;;;;;;2552134;54;21560;-76
2021/12/01 13:12:44;;;;;;;1.27;1.17;;;;;;;;;;2552159;54;21151;-77
2021/12/01 13:15:18;;;;;;;1.92;0.93;;;;;;;;;;2552214;54;21048;-77
2021/12/01 13:17:47;;;;;;;2.33;1.40;;;;;;;;;;2312167;58;21115;-77
2021/12/01 13:20:14;;;;;;;2.80;1.00;;;;;;;;;;2311921;58;21221;-77
2021/12/01 13:22:41;;;;;;;1.30;1.08;;;;;;;;;;2312216;58;21111;-77
2021/12/01 13:25:09;;;;;;;2.35;1.10;;;;;;;;;;2551826;54;21643;-77
2021/12/01 13:27:43;;;;;;;2.20;1.10;;;;;;;;;;2312216;58;21314;-76
2021/12/01 13:30:12;;;;;;;2.75;1.20;;;;;;;;;;2551988;54;21095;-76
2021/12/01 13:32:39;;;;;;;1.60;1.05;;;;;;;;;;2312554;58;21063;-77
2021/12/01 13:35:06;;;;;;;1.30;1.10;;;;;;;;;;2312384;58;21171;-77
2021/12/01 13:37:33;;;;;;;4.00;1.10;;;;;;;;;;2551668;54;21064;-76
2021/12/01 13:40:07;;;;;;;2.40;1.00;;;;;;;;;;2551633;54;21119;-75
2021/12/01 13:42:35;;;;;;;5.12;1.33;;;;;;;;;;2552025;54;21096;-76
2021/12/01 13:45:02;;;;;;;1.80;1.00;;;;;;;;;;2312449;58;21059;-75
2021/12/01 13:47:30;;;;;;;2.15;1.00;;;;;;;;;;2312164;58;21113;-76
2021/12/01 13:49:59;;;;;;;3.28;1.42;;;;;;;;;;2312304;58;21052;-76
2021/12/01 13:52:27;;;;;;;5.55;1.00;;;;;;;;;;2312360;58;21064;-76
2021/12/01 13:54:55;;;;;;;3.35;1.00;;;;;;;;;;2312227;58;21116;-76
2021/12/01 13:57:22;;;;;;;5.18;1.10;;;;;;;;;;2312229;58;21044;-76
2021/12/01 13:59:51;;;;;;;2.97;1.20;;;;;;;;;;2311594;58;21035;-75
2021/12/01 14:02:22;;;;;;;2.15;1.20;;;;;;;;;;2551270;54;21064;-75
2021/12/01 14:04:50;;;;;;;1.27;1.10;;;;;;;;;;2311311;58;21568;-76
2021/12/01 14:07:17;;;;;;;6.45;1.20;;;;;;;;;;2311719;58;22160;-75
2021/12/01 14:10:03;;;;;;;2.05;0.77;;;;;;;;;;2551909;54;21040;-76
2021/12/01 14:12:38;;;;;;;5.28;1.58;;;;;;;;;;2551622;54;21178;-76
2021/12/01 14:15:06;;;;;;;2.37;1.17;;;;;;;;;;2551743;54;21056;-74
2021/12/01 14:17:34;;;;;;;4.62;1.20;;;;;;;;;;2312204;58;21091;-75
2021/12/01 14:20:01;;;;;;;5.87;1.25;;;;;;;;;;2311965;58;21071;-75
2021/12/01 14:22:31;;;;;;;2.97;1.67;;;;;;;;;;2312300;58;21047;-76
2021/12/01 14:25:00;;;;;;;3.42;1.42;;;;;;;;;;2552217;54;21112;-76
2021/12/01 14:27:28;;;;;;;3.08;1.27;;;;;;;;;;2552291;54;21060;-76
2021/12/01 14:29:58;;;;;;;2.75;1.50;;;;;;;;;;2312964;58;21047;-77
2021/12/01 14:32:26;;;;;;;5.85;1.42;;;;;;;;;;2552605;54;21047;-77
2021/12/01 14:34:53;;;;;;;5.32;1.45;;;;;;;;;;2312654;58;21122;-77
2021/12/01 14:37:21;;;;;;;3.92;1.50;;;;;;;;;;2312720;58;21035;-77
2021/12/01 14:39:48;;;;;;;5.65;1.70;;;;;;;;;;2312249;58;21563;-77
2021/12/01 14:42:15;;;;;;;1.83;1.20;;;;;;;;;;2313158;58;21052;-77
2021/12/01 14:44:43;;;;;;;5.00;1.02;;;;;;;;;;2313169;58;21052;-77
2021/12/01 14:47:11;;;;;;;2.40;1.50;;;;;;;;;;2313254;58;21112;-77
2021/12/01 14:49:41;;;;;;;4.68;1.10;;;;;;;;;;2553193;54;21055;-76
2021/12/01 14:52:08;;;;;;;3.70;1.20;;;;;;;;;;2313782;58;21056;-77
2021/12/01 14:54:37;;;;;;;3.25;1.40;;;;;;;;;;2314076;58;21052;-76